DGAA/ACC METAR and TAF weather

Enter ICAO airport designator
Station Type Date Time Source
DGAA METAR 2020/01/21 18:00 UTC NOAA

DGAA 211800Z 15006KT 2000 HZ NSC 29/25 Q1009 NOSIG


Station Type Date Time Source
DGAA Decoded METAR 2020/01/21 18:00 UTC NOAA

Accra, Ghana (DGAA) 05-36N 000-10W 69M
Jan 21, 2020 - 01:00 PM EST / 2020.01.21 1800 UTC
Wind: from the SSE (150 degrees) at 7 MPH (6 KT):0
Visibility: 1 mile(s):0
Weather: haze
Temperature: 84 F (29 C)
Dew Point: 77 F (25 C)
Relative Humidity: 79%
Pressure (altimeter): 29.80 in. Hg (1009 hPa)
ob: DGAA 211800Z 15006KT 2000 HZ NSC 29/25 Q1009 NOSIG
cycle: 18

Station Type Date Time Source
DGAA TAF 2020/01/21 18:21 UTC NOAA

TAF TAF DGAA 211700Z 2118/2224 14008KT 2000 NSC
BECMG 2200/2202 8000 05005KT PROB40 2206/2209 1500 BR

Example: see airport list